Time;durP1;ratioP1;P1;durP2;ratioP2;P2;SDS_P1;SDS_P2;PMS_P1;PMS_P2;Temp;Humidity;BMP_temperature;BMP_pressure;BME280_temperature;BME280_humidity;BME280_pressure;Samples;Min_cycle;Max_cycle;Signal;HPM_P1;HPM_P2
2024/01/01 00:01:17;;;;;;;15.95;9.32;;;6.90;94.20;;;;;;5063637;28;20021;-91
2024/01/01 00:03:45;;;;;;;15.45;8.95;;;6.90;94.10;;;;;;5071126;28;20021;-92
2024/01/01 00:06:11;;;;;;;11.30;7.63;;;7.00;93.60;;;;;;5061695;28;20091;-91
2024/01/01 00:08:36;;;;;;;12.75;6.57;;;7.10;93.80;;;;;;5079401;28;20033;-93
2024/01/01 00:11:02;;;;;;;10.00;6.55;;;7.10;93.20;;;;;;5061472;28;20486;-92
2024/01/01 00:13:29;;;;;;;10.63;6.18;;;7.20;92.20;;;;;;5064392;28;20465;-91
2024/01/01 00:15:55;;;;;;;10.15;5.18;;;7.30;92.30;;;;;;5092556;28;20043;-91
2024/01/01 00:18:20;;;;;;;8.00;5.43;;;7.20;92.20;;;;;;5081987;28;20025;-92
2024/01/01 00:20:46;;;;;;;10.18;5.93;;;7.20;92.60;;;;;;5062318;28;20032;-91
2024/01/01 00:23:11;;;;;;;8.80;4.60;;;7.20;92.70;;;;;;5081715;28;20403;-92
2024/01/01 00:25:39;;;;;;;6.95;3.83;;;7.20;92.50;;;;;;5080812;28;20020;-90
2024/01/01 00:28:06;;;;;;;6.22;3.50;;;7.30;92.60;;;;;;5055685;28;20045;-92
2024/01/01 00:30:32;;;;;;;6.65;3.63;;;7.20;92.00;;;;;;5071580;28;20028;-91
2024/01/01 00:32:58;;;;;;;7.05;3.88;;;7.30;92.40;;;;;;5075376;28;20043;-92
2024/01/01 00:35:24;;;;;;;6.20;3.72;;;7.30;92.60;;;;;;5079418;28;20046;-91
2024/01/01 00:37:49;;;;;;;8.45;4.30;;;7.30;92.40;;;;;;5072076;28;20043;-91
2024/01/01 00:40:15;;;;;;;6.93;2.90;;;7.30;92.30;;;;;;5079700;28;20621;-91
2024/01/01 00:42:43;;;;;;;8.18;3.88;;;7.40;92.00;;;;;;5076468;28;20032;-92
2024/01/01 00:45:09;;;;;;;8.20;3.38;;;7.30;93.20;;;;;;5061590;28;20085;-91
2024/01/01 00:47:35;;;;;;;8.18;4.00;;;7.30;93.10;;;;;;5080985;28;20029;-91
2024/01/01 00:50:00;;;;;;;13.00;4.95;;;7.30;93.80;;;;;;5063836;28;20060;-91
2024/01/01 00:52:26;;;;;;;7.10;3.58;;;7.20;94.00;;;;;;5073919;28;20024;-90
2024/01/01 00:54:52;;;;;;;6.85;4.38;;;7.20;94.40;;;;;;5080557;28;20031;-92
2024/01/01 00:57:18;;;;;;;9.35;4.60;;;7.20;94.30;;;;;;5075197;28;20017;-91
2024/01/01 00:59:44;;;;;;;7.93;4.47;;;7.20;94.50;;;;;;5061042;28;20071;-92
2024/01/01 01:02:09;;;;;;;9.15;4.47;;;7.20;94.10;;;;;;5084725;28;20040;-90
2024/01/01 01:04:35;;;;;;;6.57;3.63;;;7.20;95.40;;;;;;5086236;28;20065;-90
2024/01/01 01:07:02;;;;;;;9.52;5.30;;;7.20;97.00;;;;;;5072282;28;20382;-91
2024/01/01 01:09:28;;;;;;;8.77;5.93;;;7.10;97.40;;;;;;5079553;28;20032;-91
2024/01/01 01:11:54;;;;;;;8.98;3.67;;;7.00;98.10;;;;;;5080589;28;20055;-91
2024/01/01 01:14:19;;;;;;;9.93;6.53;;;7.10;98.60;;;;;;5062082;28;20021;-91
2024/01/01 01:16:45;;;;;;;8.40;4.53;;;7.00;98.50;;;;;;5062748;28;20096;-92
2024/01/01 01:19:11;;;;;;;11.80;5.90;;;7.00;98.50;;;;;;5080862;28;20020;-92
2024/01/01 01:21:37;;;;;;;10.05;5.78;;;6.90;98.50;;;;;;5080175;28;20025;-92
2024/01/01 01:24:03;;;;;;;11.15;6.93;;;7.00;97.70;;;;;;5079836;28;20032;-91
2024/01/01 01:26:29;;;;;;;9.98;6.72;;;6.90;98.50;;;;;;5058245;28;20083;-91
2024/01/01 01:28:54;;;;;;;12.88;6.82;;;7.00;97.50;;;;;;5061994;28;20025;-92
2024/01/01 01:31:20;;;;;;;14.13;6.28;;;7.00;97.80;;;;;;5080555;28;20021;-91
2024/01/01 01:33:45;;;;;;;11.25;6.95;;;7.00;97.90;;;;;;5060444;28;20032;-91
2024/01/01 01:36:14;;;;;;;9.77;6.50;;;7.00;97.80;;;;;;5061542;28;20625;-93
2024/01/01 01:38:39;;;;;;;11.25;5.18;;;7.00;97.10;;;;;;5080023;28;20024;-89
2024/01/01 01:41:05;;;;;;;8.93;5.18;;;7.00;97.40;;;;;;5062009;28;20037;-91
2024/01/01 01:43:31;;;;;;;8.90;6.05;;;7.00;96.90;;;;;;5081793;28;20054;-92
2024/01/01 01:45:58;;;;;;;7.93;4.85;;;7.00;96.40;;;;;;5080760;28;20051;-91
2024/01/01 01:48:24;;;;;;;6.45;4.18;;;7.00;96.90;;;;;;5064539;28;20091;-92
2024/01/01 01:50:51;;;;;;;7.18;3.92;;;7.00;96.50;;;;;;5063090;28;20036;-91
2024/01/01 01:53:24;;;;;;;9.48;5.22;;;7.00;96.20;;;;;;5081346;28;20028;-92
2024/01/01 01:55:52;;;;;;;7.88;3.67;;;6.90;96.50;;;;;;5062585;28;20035;-91
2024/01/01 01:58:18;;;;;;;5.70;3.97;;;6.90;96.20;;;;;;5084882;28;20047;-92
2024/01/01 02:00:48;;;;;;;6.53;4.40;;;6.90;96.20;;;;;;5067350;28;20026;-89
2024/01/01 02:03:14;;;;;;;7.65;3.35;;;6.90;96.80;;;;;;5084891;28;20028;-91
2024/01/01 02:05:40;;;;;;;5.05;3.08;;;6.90;96.40;;;;;;5083227;28;20039;-91
2024/01/01 02:08:07;;;;;;;4.57;2.83;;;7.00;96.20;;;;;;5065631;28;20028;-91
2024/01/01 02:10:33;;;;;;;5.93;3.05;;;6.90;96.50;;;;;;5064655;28;20020;-91
2024/01/01 02:13:02;;;;;;;6.82;2.80;;;7.00;96.80;;;;;;5065290;28;20044;-91
2024/01/01 02:15:28;;;;;;;5.07;2.70;;;6.90;97.30;;;;;;5072444;28;20029;-91
2024/01/01 02:17:54;;;;;;;5.75;3.10;;;6.90;97.60;;;;;;5064207;28;20075;-90
2024/01/01 02:20:20;;;;;;;5.30;2.25;;;6.90;98.00;;;;;;5064716;28;20029;-92
2024/01/01 02:22:46;;;;;;;4.38;2.13;;;6.90;98.00;;;;;;5086152;28;20080;-91
2024/01/01 02:25:12;;;;;;;8.13;4.13;;;6.90;97.70;;;;;;5071991;28;20024;-91
2024/01/01 02:27:39;;;;;;;12.30;8.35;;;6.90;98.00;;;;;;5065000;28;20025;-92
2024/01/01 02:30:12;;;;;;;10.45;6.18;;;6.90;98.40;;;;;;5066687;28;20037;-90
2024/01/01 02:32:38;;;;;;;6.93;3.08;;;6.90;97.80;;;;;;5084247;28;20012;-91
2024/01/01 02:35:07;;;;;;;5.93;2.50;;;6.90;97.80;;;;;;5083468;28;20017;-91
2024/01/01 02:37:33;;;;;;;4.90;2.78;;;6.90;97.80;;;;;;5076579;28;20012;-92
2024/01/01 02:40:00;;;;;;;7.53;3.38;;;6.90;97.80;;;;;;5064897;28;20407;-91
2024/01/01 02:42:27;;;;;;;7.65;3.50;;;6.90;98.30;;;;;;5085289;28;20128;-93
2024/01/01 02:44:52;;;;;;;6.63;3.28;;;6.90;98.40;;;;;;5085719;28;20074;-92
2024/01/01 02:47:18;;;;;;;5.28;3.50;;;6.90;98.10;;;;;;5085570;28;20028;-92
2024/01/01 02:49:44;;;;;;;9.10;3.83;;;6.90;98.10;;;;;;5083352;28;20115;-91
2024/01/01 02:52:09;;;;;;;8.73;4.28;;;6.90;97.90;;;;;;5082951;28;20547;-91
2024/01/01 02:54:35;;;;;;;9.52;4.65;;;6.90;98.10;;;;;;5065463;28;20027;-92
2024/01/01 02:57:01;;;;;;;10.20;5.47;;;6.90;98.70;;;;;;5083437;28;20027;-92
2024/01/01 02:59:26;;;;;;;8.55;4.10;;;6.90;98.20;;;;;;5082764;28;20021;-92
2024/01/01 03:01:52;;;;;;;6.55;3.70;;;6.90;98.40;;;;;;5066655;28;20044;-91
2024/01/01 03:04:18;;;;;;;8.35;3.95;;;7.00;97.50;;;;;;5062254;28;20029;-91
2024/01/01 03:06:43;;;;;;;6.10;3.20;;;7.00;96.60;;;;;;5075466;28;20024;-91
2024/01/01 03:09:09;;;;;;;9.18;4.97;;;7.10;97.20;;;;;;5081885;28;20090;-91
2024/01/01 03:11:35;;;;;;;14.50;4.40;;;7.00;96.90;;;;;;5058821;28;20054;-92
2024/01/01 03:14:01;;;;;;;8.48;4.22;;;7.00;96.90;;;;;;5076421;28;20016;-92
2024/01/01 03:16:26;;;;;;;11.02;4.25;;;7.10;95.70;;;;;;5080748;28;20392;-92
2024/01/01 03:18:52;;;;;;;10.38;4.07;;;7.10;96.00;;;;;;5080501;28;20475;-91
2024/01/01 03:21:18;;;;;;;9.02;4.07;;;7.10;95.90;;;;;;5080432;28;20017;-91
2024/01/01 03:23:43;;;;;;;5.63;3.72;;;7.10;97.00;;;;;;5080518;28;20426;-91
2024/01/01 03:26:10;;;;;;;6.90;4.68;;;7.10;97.00;;;;;;5062082;28;20095;-91
2024/01/01 03:28:36;;;;;;;8.02;4.88;;;7.00;97.00;;;;;;5078230;28;20122;-91
2024/01/01 03:31:01;;;;;;;12.40;4.88;;;7.00;96.20;;;;;;5078422;28;20043;-90
2024/01/01 03:33:28;;;;;;;7.95;4.50;;;7.00;96.00;;;;;;5079338;28;20115;-93
2024/01/01 03:35:54;;;;;;;9.10;4.93;;;7.00;96.30;;;;;;5073056;28;20052;-92
2024/01/01 03:38:20;;;;;;;6.75;4.03;;;7.00;96.00;;;;;;5067570;28;20029;-89
2024/01/01 03:40:45;;;;;;;9.93;4.30;;;7.00;96.20;;;;;;5077972;28;20033;-90
2024/01/01 03:43:11;;;;;;;7.95;4.68;;;7.00;95.30;;;;;;5052244;28;20092;-92
2024/01/01 03:45:37;;;;;;;6.72;4.18;;;7.00;95.60;;;;;;5077540;28;20107;-93
2024/01/01 03:48:03;;;;;;;8.27;3.28;;;7.00;95.40;;;;;;5070327;28;20025;-92
2024/01/01 03:50:29;;;;;;;5.35;2.35;;;7.00;95.10;;;;;;5065997;28;20036;-92
2024/01/01 03:52:55;;;;;;;5.53;2.75;;;7.00;95.10;;;;;;5073464;28;20021;-92
2024/01/01 03:55:21;;;;;;;3.50;2.28;;;7.10;95.40;;;;;;5075073;28;20087;-93
2024/01/01 03:57:46;;;;;;;5.97;2.85;;;7.00;95.50;;;;;;5069853;28;20476;-92
2024/01/01 04:00:12;;;;;;;6.28;2.25;;;7.00;95.10;;;;;;5079497;28;20124;-91
2024/01/01 04:02:40;;;;;;;7.07;4.32;;;7.00;95.10;;;;;;5078632;28;20025;-91
2024/01/01 04:05:06;;;;;;;3.95;1.75;;;7.00;95.30;;;;;;5078700;28;20050;-92
2024/01/01 04:07:33;;;;;;;4.43;1.95;;;7.00;94.30;;;;;;5060215;28;20021;-92
2024/01/01 04:09:59;;;;;;;6.10;2.00;;;7.10;93.90;;;;;;5069904;28;20029;-91
2024/01/01 04:12:25;;;;;;;2.95;1.98;;;7.10;94.20;;;;;;5077320;28;20027;-93
2024/01/01 04:14:50;;;;;;;3.92;1.27;;;7.10;93.00;;;;;;5077768;28;20078;-91
2024/01/01 04:17:16;;;;;;;6.93;1.50;;;7.10;93.30;;;;;;5077486;28;20023;-94
2024/01/01 04:19:47;;;;;;;3.60;1.42;;;7.10;93.40;;;;;;5077258;28;20113;-93
2024/01/01 04:22:18;;;;;;;2.53;1.08;;;7.00;92.30;;;;;;5078714;28;20044;-92
2024/01/01 04:24:43;;;;;;;7.80;1.65;;;7.10;92.70;;;;;;5073465;28;20025;-92
2024/01/01 04:27:10;;;;;;;3.83;1.45;;;7.10;91.60;;;;;;5075653;28;20099;-91
2024/01/01 04:29:36;;;;;;;4.32;1.80;;;7.10;91.30;;;;;;5060951;28;20088;-91
2024/01/01 04:32:02;;;;;;;5.03;3.22;;;7.20;91.30;;;;;;5063189;28;20047;-92
2024/01/01 04:34:28;;;;;;;3.75;1.77;;;7.10;91.50;;;;;;5078270;28;20036;-92
2024/01/01 04:36:53;;;;;;;9.63;1.98;;;7.10;90.80;;;;;;5078807;28;20035;-92
2024/01/01 04:39:19;;;;;;;4.15;1.55;;;7.20;90.40;;;;;;5061134;28;20032;-91
2024/01/01 04:41:45;;;;;;;3.67;1.40;;;7.10;90.20;;;;;;5078132;28;20032;-91
2024/01/01 04:44:10;;;;;;;5.68;1.17;;;7.10;89.70;;;;;;5079743;28;20032;-91
2024/01/01 04:46:36;;;;;;;3.45;1.58;;;7.10;90.30;;;;;;5061887;28;20033;-91
2024/01/01 04:49:02;;;;;;;2.85;1.70;;;7.00;90.50;;;;;;5078357;28;20422;-92
2024/01/01 04:51:27;;;;;;;5.97;2.17;;;7.10;89.50;;;;;;5078790;28;20021;-92
2024/01/01 04:53:53;;;;;;;2.40;1.02;;;7.20;89.80;;;;;;5079505;28;20039;-91
2024/01/01 04:56:21;;;;;;;3.22;1.13;;;7.10;89.60;;;;;;5078559;28;20660;-91
2024/01/01 04:58:47;;;;;;;;;;;7.20;88.40;;;;;;5052111;28;20071;-90
2024/01/01 05:01:13;;;;;;;3.67;1.58;;;7.20;88.60;;;;;;5077183;28;19908;-92
2024/01/01 05:03:39;;;;;;;3.70;1.65;;;7.20;88.50;;;;;;5060499;28;20051;-92
2024/01/01 05:06:05;;;;;;;2.42;1.58;;;7.10;88.40;;;;;;5078619;28;20119;-93
2024/01/01 05:08:32;;;;;;;3.17;1.10;;;7.10;88.60;;;;;;5060997;28;20062;-91
2024/01/01 05:10:58;;;;;;;6.10;1.75;;;7.10;88.20;;;;;;5077927;28;20016;-92
2024/01/01 05:13:23;;;;;;;6.38;2.03;;;7.10;88.60;;;;;;5060154;28;20031;-92
2024/01/01 05:15:49;;;;;;;3.33;1.38;;;7.10;88.50;;;;;;5078114;28;20123;-89
2024/01/01 05:18:15;;;;;;;4.20;1.30;;;7.20;88.10;;;;;;5077829;28;20021;-91
2024/01/01 05:20:41;;;;;;;4.55;2.17;;;7.20;87.90;;;;;;5079110;28;20028;-93
2024/01/01 05:23:07;;;;;;;4.97;1.73;;;7.20;87.70;;;;;;5079287;28;20410;-91
2024/01/01 05:25:33;;;;;;;5.57;2.05;;;7.30;86.90;;;;;;5079236;28;20035;-91
2024/01/01 05:27:58;;;;;;;5.47;2.20;;;7.30;87.60;;;;;;5061095;28;20024;-93
2024/01/01 05:30:27;;;;;;;8.10;2.70;;;7.20;87.80;;;;;;5081883;28;20028;-93
2024/01/01 05:32:53;;;;;;;9.00;1.52;;;7.20;87.60;;;;;;5081852;28;20017;-93
2024/01/01 05:35:18;;;;;;;2.17;1.15;;;7.30;87.30;;;;;;5065074;28;20039;-91
2024/01/01 05:37:44;;;;;;;7.65;1.42;;;7.20;87.10;;;;;;5083090;28;20482;-92
2024/01/01 05:40:10;;;;;;;2.80;1.80;;;7.20;86.20;;;;;;5082759;28;20082;-91
2024/01/01 05:42:35;;;;;;;4.55;1.25;;;7.30;86.30;;;;;;5064927;28;20029;-92
2024/01/01 05:45:02;;;;;;;4.15;1.50;;;7.30;86.40;;;;;;5064179;28;20032;-91
2024/01/01 05:47:28;;;;;;;4.43;1.45;;;7.30;85.70;;;;;;5083414;28;20036;-92
2024/01/01 05:49:53;;;;;;;2.35;1.00;;;7.30;86.50;;;;;;5064399;28;20043;-92
2024/01/01 05:52:21;;;;;;;7.68;2.15;;;7.20;85.80;;;;;;5064371;28;20036;-91
2024/01/01 05:54:48;;;;;;;3.90;2.15;;;7.30;86.20;;;;;;5082312;28;20020;-92
2024/01/01 05:57:14;;;;;;;4.82;1.50;;;7.20;85.50;;;;;;5066228;28;20021;-92
2024/01/01 05:59:39;;;;;;;2.95;1.75;;;7.30;85.30;;;;;;5067182;28;20107;-91
2024/01/01 06:02:05;;;;;;;3.40;1.00;;;7.30;85.60;;;;;;5081925;28;20020;-92
2024/01/01 06:04:31;;;;;;;4.05;0.75;;;7.30;85.70;;;;;;5082298;28;20513;-92
2024/01/01 06:06:56;;;;;;;4.35;2.05;;;7.20;85.90;;;;;;5054371;28;20048;-93
2024/01/01 06:09:22;;;;;;;3.38;1.15;;;7.20;85.30;;;;;;5082333;28;20025;-92
2024/01/01 06:11:48;;;;;;;5.85;1.30;;;7.20;85.80;;;;;;5082112;28;20028;-91
2024/01/01 06:14:14;;;;;;;6.03;1.02;;;7.20;86.00;;;;;;5073160;28;20183;-92
2024/01/01 06:16:43;;;;;;;7.68;1.13;;;7.10;85.60;;;;;;5067510;28;20502;-91
2024/01/01 06:19:09;;;;;;;4.78;1.60;;;7.10;86.10;;;;;;5081749;28;20146;-90
2024/01/01 06:21:35;;;;;;;3.88;1.40;;;7.20;85.60;;;;;;5064729;28;20048;-91
2024/01/01 06:24:00;;;;;;;6.10;1.20;;;7.20;85.70;;;;;;5058165;28;20074;-93
2024/01/01 06:26:26;;;;;;;3.28;1.52;;;7.10;86.10;;;;;;5058448;28;20112;-92
2024/01/01 06:28:52;;;;;;;4.15;1.88;;;7.10;86.30;;;;;;5077550;28;20444;-91
2024/01/01 06:31:17;;;;;;;3.42;1.52;;;7.00;86.70;;;;;;5081051;28;20032;-91
2024/01/01 06:33:43;;;;;;;5.95;1.83;;;7.00;87.20;;;;;;5065378;28;20028;-92
2024/01/01 06:36:10;;;;;;;5.60;1.38;;;6.90;87.20;;;;;;5082652;28;20084;-91
2024/01/01 06:38:36;;;;;;;3.13;1.60;;;6.80;87.80;;;;;;5060567;28;20020;-92
2024/01/01 06:41:02;;;;;;;5.15;1.20;;;6.80;88.30;;;;;;5064119;28;20064;-92
2024/01/01 06:43:28;;;;;;;5.90;1.95;;;6.80;88.00;;;;;;5081448;28;20021;-93
2024/01/01 06:45:54;;;;;;;4.20;1.50;;;6.80;88.00;;;;;;5075956;28;20025;-92
2024/01/01 06:48:19;;;;;;;6.47;1.60;;;6.80;88.00;;;;;;5067445;28;20076;-92
2024/01/01 06:50:45;;;;;;;7.85;3.05;;;6.80;88.00;;;;;;5082806;28;20490;-91
2024/01/01 06:53:11;;;;;;;3.90;2.00;;;6.80;88.30;;;;;;5081945;28;20027;-92
2024/01/01 06:55:36;;;;;;;2.03;1.13;;;6.70;89.20;;;;;;5068425;28;20077;-90
2024/01/01 06:58:02;;;;;;;2.50;1.75;;;6.70;89.50;;;;;;5061015;28;20421;-92
2024/01/01 07:00:28;;;;;;;3.45;1.15;;;6.70;89.40;;;;;;5058798;28;20025;-91
2024/01/01 07:02:54;;;;;;;3.38;0.98;;;6.70;89.30;;;;;;5074969;28;20059;-92
2024/01/01 07:05:21;;;;;;;4.75;1.45;;;6.70;89.60;;;;;;5080787;28;20433;-92
2024/01/01 07:07:47;;;;;;;4.47;1.50;;;6.70;89.00;;;;;;5076514;28;20021;-92
2024/01/01 07:10:13;;;;;;;2.30;1.27;;;6.70;89.40;;;;;;5080115;28;20158;-91
2024/01/01 07:12:38;;;;;;;4.82;1.52;;;6.80;89.90;;;;;;5064220;28;20017;-92
2024/01/01 07:15:05;;;;;;;5.47;2.35;;;6.80;89.70;;;;;;5079939;28;20020;-93
2024/01/01 07:17:31;;;;;;;3.95;1.17;;;6.80;89.40;;;;;;5080047;28;20020;-92
2024/01/01 07:19:58;;;;;;;2.83;1.42;;;6.80;89.20;;;;;;5061677;28;20029;-93
2024/01/01 07:22:23;;;;;;;3.35;0.93;;;6.90;89.80;;;;;;5062802;28;20035;-92
2024/01/01 07:24:49;;;;;;;4.32;1.20;;;6.80;89.70;;;;;;5062837;28;20107;-92
2024/01/01 07:27:15;;;;;;;2.42;1.30;;;6.90;89.50;;;;;;5081203;28;20028;-92
2024/01/01 07:29:41;;;;;;;4.00;1.45;;;6.80;89.40;;;;;;5080879;28;20028;-92
2024/01/01 07:32:07;;;;;;;3.83;2.08;;;6.90;90.00;;;;;;5079491;28;20088;-92
2024/01/01 07:34:33;;;;;;;3.22;1.08;;;6.90;90.00;;;;;;5058090;28;20060;-92
2024/01/01 07:36:58;;;;;;;2.80;1.42;;;6.90;90.10;;;;;;5076734;28;20637;-91
2024/01/01 07:39:24;;;;;;;2.88;1.15;;;6.90;90.10;;;;;;5062278;28;20020;-92
2024/01/01 07:41:51;;;;;;;8.00;1.75;;;6.90;90.50;;;;;;5078656;28;20100;-92
2024/01/01 07:44:16;;;;;;;7.75;1.40;;;6.80;90.70;;;;;;5060838;28;20029;-92
2024/01/01 07:46:42;;;;;;;4.78;1.40;;;6.80;90.80;;;;;;5078979;28;20020;-89
2024/01/01 07:49:08;;;;;;;4.53;1.95;;;6.80;91.30;;;;;;5070320;28;20040;-92
2024/01/01 07:51:34;;;;;;;3.97;1.17;;;6.80;91.10;;;;;;5072159;28;20027;-92
2024/01/01 07:54:01;;;;;;;6.38;1.70;;;6.80;91.20;;;;;;5079720;28;20029;-92
2024/01/01 07:56:28;;;;;;;2.25;1.10;;;6.80;90.90;;;;;;5056254;28;20022;-91
2024/01/01 07:58:53;;;;;;;2.58;0.70;;;6.90;90.90;;;;;;5079300;28;20029;-92
2024/01/01 08:01:20;;;;;;;3.55;1.45;;;6.90;90.60;;;;;;5078218;28;20606;-92
2024/01/01 08:03:46;;;;;;;2.30;0.88;;;6.90;90.40;;;;;;5078422;28;20062;-91
2024/01/01 08:06:12;;;;;;;3.97;1.17;;;7.00;90.50;;;;;;5077449;28;20028;-93
2024/01/01 08:08:37;;;;;;;3.95;1.40;;;6.90;90.40;;;;;;5078977;28;20029;-93
2024/01/01 08:11:03;;;;;;;3.30;1.40;;;6.90;90.70;;;;;;5077926;28;20475;-92
2024/01/01 08:13:29;;;;;;;3.38;1.92;;;6.90;90.90;;;;;;5077641;28;20495;-92
2024/01/01 08:15:55;;;;;;;2.13;1.45;;;6.90;90.70;;;;;;5077835;28;20044;-91
2024/01/01 08:18:20;;;;;;;4.70;1.35;;;7.00;90.60;;;;;;5064039;28;20029;-92
2024/01/01 08:20:46;;;;;;;4.47;1.17;;;6.90;90.60;;;;;;5078183;28;20043;-92
2024/01/01 08:23:12;;;;;;;3.67;1.23;;;6.90;90.30;;;;;;5072970;28;20029;-92
2024/01/01 08:25:39;;;;;;;3.70;2.83;;;7.00;89.70;;;;;;5078421;28;20271;-89
2024/01/01 08:28:05;;;;;;;3.08;1.15;;;7.00;89.70;;;;;;5060942;28;20119;-90
2024/01/01 08:30:31;;;;;;;3.17;1.83;;;7.00;89.40;;;;;;5058066;28;20040;-91
2024/01/01 08:32:57;;;;;;;4.97;1.15;;;7.10;89.80;;;;;;5073478;28;20082;-90
2024/01/01 08:35:23;;;;;;;3.80;1.52;;;7.10;89.70;;;;;;5080661;28;20528;-93
2024/01/01 08:37:49;;;;;;;4.32;1.83;;;7.10;89.10;;;;;;5078464;28;20029;-92
2024/01/01 08:40:15;;;;;;;3.42;2.42;;;7.10;89.30;;;;;;5071014;28;20025;-93
2024/01/01 08:42:40;;;;;;;3.80;1.27;;;7.10;89.70;;;;;;5078852;28;20024;-90
2024/01/01 08:45:07;;;;;;;8.63;2.38;;;7.20;89.50;;;;;;5078662;28;20080;-92
2024/01/01 08:47:32;;;;;;;4.03;1.58;;;7.20;89.50;;;;;;5077893;28;20100;-93
2024/01/01 08:49:59;;;;;;;3.72;1.35;;;7.20;89.40;;;;;;5059293;28;20052;-91
2024/01/01 08:52:25;;;;;;;4.55;0.88;;;7.20;89.20;;;;;;5078489;28;20036;-93
2024/01/01 08:54:50;;;;;;;1.70;0.98;;;7.20;89.60;;;;;;5071792;28;20013;-91
2024/01/01 08:57:16;;;;;;;3.70;1.63;;;7.20;89.90;;;;;;5048369;28;20107;-91
2024/01/01 08:59:42;;;;;;;4.18;1.50;;;7.20;89.40;;;;;;5059832;28;20025;-91
2024/01/01 09:02:09;;;;;;;6.05;1.35;;;7.30;89.90;;;;;;5050478;28;20265;-90
2024/01/01 09:04:35;;;;;;;1.77;1.33;;;7.30;90.00;;;;;;5043914;28;20021;-92
2024/01/01 09:07:02;;;;;;;2.92;1.10;;;7.30;90.90;;;;;;5057660;28;20021;-92
2024/01/01 09:09:28;;;;;;;3.92;1.45;;;7.30;90.20;;;;;;5081964;28;20035;-92
2024/01/01 09:11:54;;;;;;;3.58;1.40;;;7.30;89.60;;;;;;5064136;28;20024;-91
2024/01/01 09:14:20;;;;;;;3.83;1.38;;;7.30;89.50;;;;;;5082832;28;20220;-91
2024/01/01 09:16:46;;;;;;;1.77;1.00;;;7.30;89.40;;;;;;5062329;28;20028;-93
2024/01/01 09:19:12;;;;;;;3.55;1.27;;;7.30;89.70;;;;;;5076782;28;20028;-91
2024/01/01 09:21:38;;;;;;;2.17;1.73;;;7.30;89.80;;;;;;5081450;28;20048;-92
2024/01/01 09:24:05;;;;;;;3.70;1.60;;;7.40;89.00;;;;;;5055363;28;20028;-91
2024/01/01 09:26:31;;;;;;;2.50;0.80;;;7.40;88.70;;;;;;5062917;28;20028;-92
2024/01/01 09:28:57;;;;;;;3.10;1.33;;;7.50;88.40;;;;;;5066263;28;20375;-90
2024/01/01 09:31:23;;;;;;;4.38;1.25;;;7.50;88.10;;;;;;5055201;28;20031;-92
2024/01/01 09:33:49;;;;;;;3.35;1.33;;;7.50;87.90;;;;;;5081823;28;20107;-92
2024/01/01 09:36:15;;;;;;;3.30;1.83;;;7.60;87.20;;;;;;5063508;28;20024;-93
2024/01/01 09:38:43;;;;;;;5.43;3.35;;;7.70;86.40;;;;;;5078780;28;20021;-93
2024/01/01 09:41:12;;;;;;;3.88;1.83;;;7.70;86.10;;;;;;5077491;28;20032;-93
2024/01/01 09:43:42;;;;;;;7.22;1.55;;;7.80;86.20;;;;;;5073922;28;20044;-91
2024/01/01 09:46:08;;;;;;;2.22;1.55;;;7.80;85.00;;;;;;5079343;28;20025;-92
2024/01/01 09:48:34;;;;;;;3.95;1.55;;;7.80;84.80;;;;;;5074599;28;20039;-93
2024/01/01 09:51:02;;;;;;;5.35;1.73;;;7.90;85.10;;;;;;5072630;28;20068;-91
2024/01/01 09:53:29;;;;;;;8.25;1.55;;;7.90;85.20;;;;;;5072599;28;20013;-92
2024/01/01 09:55:55;;;;;;;4.82;1.52;;;7.90;84.20;;;;;;5071783;28;20020;-91
2024/01/01 09:58:21;;;;;;;4.03;1.75;;;7.90;84.20;;;;;;5071651;28;20737;-94
2024/01/01 10:00:48;;;;;;;2.90;1.20;;;7.90;84.70;;;;;;5074621;28;20082;-93
2024/01/01 10:03:14;;;;;;;7.50;1.48;;;7.90;84.50;;;;;;5075509;28;20017;-92
2024/01/01 10:05:41;;;;;;;8.63;1.75;;;7.90;84.40;;;;;;5055136;28;20143;-94
2024/01/01 10:08:12;;;;;;;3.58;1.25;;;8.00;84.20;;;;;;5070368;28;20035;-91
2024/01/01 10:10:39;;;;;;;4.97;1.83;;;8.00;84.40;;;;;;5075687;28;20059;-93
2024/01/01 10:13:09;;;;;;;3.03;1.17;;;7.90;83.70;;;;;;5074066;28;20036;-92
2024/01/01 10:15:41;;;;;;;4.45;3.15;;;8.00;84.20;;;;;;5071309;28;20029;-91
2024/01/01 10:18:09;;;;;;;3.38;0.98;;;8.00;86.40;;;;;;5070284;28;20052;-92
2024/01/01 10:20:34;;;;;;;4.18;1.73;;;7.80;86.20;;;;;;5056899;28;20028;-91
2024/01/01 10:23:01;;;;;;;6.68;1.55;;;7.80;86.20;;;;;;5054942;28;20032;-91
2024/01/01 10:25:27;;;;;;;1.98;1.30;;;7.80;86.70;;;;;;5077506;28;20156;-91
2024/01/01 10:27:56;;;;;;;4.82;1.13;;;7.90;86.80;;;;;;5061164;28;20060;-92
2024/01/01 10:30:22;;;;;;;1.50;1.00;;;7.80;88.60;;;;;;5079156;28;20040;-92
2024/01/01 10:32:50;;;;;;;5.25;1.00;;;7.70;89.30;;;;;;5062340;28;20021;-92
2024/01/01 10:35:16;;;;;;;8.00;1.25;;;7.60;90.30;;;;;;5081668;28;20065;-92
2024/01/01 10:37:43;;;;;;;4.88;0.80;;;7.60;90.10;;;;;;5054223;28;20071;-91
2024/01/01 10:40:14;;;;;;;6.22;1.83;;;7.70;89.90;;;;;;5071335;28;20032;-90
2024/01/01 10:42:44;;;;;;;3.05;2.08;;;7.70;89.90;;;;;;5072750;28;20056;-92
2024/01/01 10:45:10;;;;;;;4.82;0.88;;;7.80;89.00;;;;;;5072063;28;20025;-93
2024/01/01 10:47:37;;;;;;;4.43;1.30;;;8.10;87.30;;;;;;5069471;28;20020;-91
2024/01/01 10:50:20;;;;;;;5.28;1.48;;;8.20;87.70;;;;;;5069215;28;20032;-94
2024/01/01 10:53:05;;;;;;;4.80;1.33;;;8.40;85.90;;;;;;5070963;28;20028;-90
2024/01/01 10:55:48;;;;;;;7.10;1.77;;;8.40;85.80;;;;;;5071473;28;20031;-96
2024/01/01 10:58:17;;;;;;;5.10;1.63;;;8.20;86.30;;;;;;5056061;28;20076;-92
2024/01/01 11:01:05;;;;;;;5.28;1.35;;;8.10;87.30;;;;;;5073437;28;20020;-91
2024/01/01 11:03:33;;;;;;;5.70;1.73;;;8.30;87.20;;;;;;5072843;28;20095;-92
2024/01/01 11:06:22;;;;;;;5.18;1.27;;;8.40;85.70;;;;;;5070506;28;20039;-91
2024/01/01 11:08:47;;;;;;;7.07;1.38;;;8.40;86.70;;;;;;5070955;28;20036;-92
2024/01/01 11:11:30;;;;;;;3.40;0.80;;;8.40;86.70;;;;;;5081777;28;20025;-93
2024/01/01 11:13:56;;;;;;;2.30;1.73;;;8.40;85.00;;;;;;5061551;28;20070;-91
2024/01/01 11:16:23;;;;;;;4.43;2.15;;;8.40;85.20;;;;;;5078414;28;20016;-91
2024/01/01 11:18:49;;;;;;;9.85;4.22;;;8.40;86.00;;;;;;5077027;28;20047;-92
2024/01/01 11:21:30;;;;;;;10.15;5.43;;;8.30;85.90;;;;;;5062200;28;20020;-92
2024/01/01 11:24:01;;;;;;;9.52;6.57;;;8.30;86.20;;;;;;5073272;28;20713;-91
2024/01/01 11:26:34;;;;;;;4.72;2.10;;;8.20;86.80;;;;;;5078789;28;20032;-92
2024/01/01 11:29:01;;;;;;;6.07;1.77;;;8.20;85.70;;;;;;5060662;28;20455;-91
2024/01/01 11:31:28;;;;;;;6.63;1.48;;;8.10;85.90;;;;;;5077941;28;20032;-92
2024/01/01 11:34:08;;;;;;;7.70;1.95;;;8.20;85.60;;;;;;5057692;28;20511;-92
2024/01/01 11:36:35;;;;;;;6.97;1.77;;;8.20;85.90;;;;;;5069284;28;20020;-93
2024/01/01 11:39:02;;;;;;;6.45;2.63;;;8.20;85.10;;;;;;5055572;28;20028;-94
2024/01/01 11:41:30;;;;;;;7.28;2.78;;;8.20;85.20;;;;;;5074818;28;20538;-91
2024/01/01 11:44:14;;;;;;;;;;;8.20;85.50;;;;;;5075715;28;20029;-92
2024/01/01 11:46:41;;;;;;;5.25;1.67;;;8.20;84.20;;;;;;5073953;28;19916;-90
2024/01/01 11:49:07;;;;;;;7.75;2.95;;;8.20;85.60;;;;;;5074225;28;20176;-94
2024/01/01 11:51:51;;;;;;;4.88;1.80;;;8.20;84.80;;;;;;5064903;28;20047;-91
2024/01/01 11:54:17;;;;;;;7.82;2.50;;;8.40;84.60;;;;;;5057569;28;20074;-91
2024/01/01 11:56:46;;;;;;;2.42;1.20;;;8.40;83.90;;;;;;5073268;28;20024;-93
2024/01/01 11:59:12;;;;;;;5.78;1.67;;;8.50;84.30;;;;;;5077042;28;20301;-93
2024/01/01 12:01:40;;;;;;;4.00;1.50;;;8.60;83.70;;;;;;5071305;28;20057;-91
2024/01/01 12:04:07;;;;;;;11.40;2.25;;;8.50;82.90;;;;;;5053755;28;20025;-91
2024/01/01 12:06:34;;;;;;;7.20;2.20;;;8.50;83.10;;;;;;5067730;28;20055;-92
2024/01/01 12:09:10;;;;;;;6.15;2.88;;;8.60;83.40;;;;;;5076024;28;20292;-92
2024/01/01 12:11:40;;;;;;;6.03;2.17;;;8.70;82.20;;;;;;5067706;28;20051;-91
2024/01/01 12:14:07;;;;;;;5.55;1.23;;;8.80;82.60;;;;;;5058443;28;20140;-92
2024/01/01 12:16:35;;;;;;;5.95;2.33;;;9.00;82.40;;;;;;5076613;28;20020;-91
2024/01/01 12:19:02;;;;;;;4.05;2.15;;;9.00;81.60;;;;;;5068710;28;20060;-91
2024/01/01 12:21:38;;;;;;;3.65;2.78;;;9.00;81.80;;;;;;5058233;28;20021;-93
2024/01/01 12:24:05;;;;;;;4.43;1.95;;;8.90;82.80;;;;;;5076580;28;20032;-93
2024/01/01 12:26:34;;;;;;;4.38;2.60;;;8.80;82.20;;;;;;5057442;28;20544;-91
2024/01/01 12:29:09;;;;;;;9.13;2.33;;;8.70;82.20;;;;;;5071926;28;20028;-93
2024/01/01 12:31:36;;;;;;;4.43;1.42;;;8.70;83.00;;;;;;5066753;28;20424;-92
2024/01/01 12:34:02;;;;;;;6.88;2.70;;;8.70;83.10;;;;;;5063725;28;20108;-91
2024/01/01 12:36:28;;;;;;;8.77;2.17;;;8.60;84.20;;;;;;5062069;28;20075;-91
2024/01/01 12:38:53;;;;;;;10.02;2.35;;;8.60;84.20;;;;;;5044742;28;20029;-92
2024/01/01 12:41:20;;;;;;;10.77;2.40;;;8.60;85.00;;;;;;5063299;28;20040;-91
2024/01/01 12:43:46;;;;;;;5.05;1.65;;;8.60;84.40;;;;;;5044881;28;20036;-93
2024/01/01 12:46:15;;;;;;;5.05;1.60;;;8.60;84.60;;;;;;5066877;28;20135;-92
2024/01/01 12:48:47;;;;;;;9.10;2.33;;;8.70;84.50;;;;;;5048880;28;20056;-94
2024/01/01 12:51:17;;;;;;;7.38;1.65;;;8.70;83.80;;;;;;5068592;28;20071;-91
2024/01/01 12:53:44;;;;;;;7.63;2.28;;;8.90;83.90;;;;;;5063735;28;20032;-93
2024/01/01 12:56:10;;;;;;;5.88;1.77;;;9.00;83.90;;;;;;5068018;28;20416;-93